createdAt,value
2017-09-22T00:01:52.342Z,82.80
2017-09-22T00:04:20.657Z,83.26
2017-09-22T00:06:48.983Z,82.78
2017-09-22T00:09:18.098Z,82.35
2017-09-22T00:11:46.422Z,82.49
2017-09-22T00:14:14.734Z,82.28
2017-09-22T00:16:43.826Z,82.17
2017-09-22T00:19:12.899Z,82.05
2017-09-22T00:21:41.262Z,81.83
2017-09-22T00:24:09.564Z,82.00
2017-09-22T00:26:37.861Z,81.90
2017-09-22T00:29:06.941Z,81.80
2017-09-22T00:31:35.254Z,81.77
2017-09-22T00:34:03.574Z,81.82
2017-09-22T00:36:31.868Z,81.84
2017-09-22T00:39:00.190Z,81.37
2017-09-22T00:41:28.494Z,81.18
2017-09-22T00:43:56.800Z,81.02
2017-09-22T00:46:25.114Z,80.86
2017-09-22T00:48:53.454Z,80.93
2017-09-22T00:51:21.750Z,81.38
2017-09-22T00:53:50.812Z,81.70
2017-09-22T00:56:19.121Z,81.97
2017-09-22T00:58:48.185Z,82.60
2017-09-22T01:01:16.511Z,82.85
2017-09-22T01:03:44.904Z,82.74
2017-09-22T01:06:13.235Z,82.17
2017-09-22T01:08:41.545Z,81.98
2017-09-22T01:11:09.892Z,82.16
2017-09-22T01:13:38.218Z,82.10
2017-09-22T01:16:06.526Z,82.42
2017-09-22T01:18:34.870Z,82.62
2017-09-22T01:21:03.164Z,82.11
2017-09-22T01:23:31.480Z,82.42
2017-09-22T01:26:00.558Z,82.84
2017-09-22T01:28:28.877Z,82.29
2017-09-22T01:30:57.191Z,82.11
2017-09-22T01:33:25.540Z,82.27
2017-09-22T01:35:53.867Z,82.24
2017-09-22T01:38:22.186Z,82.19
2017-09-22T01:40:50.585Z,82.32
2017-09-22T01:43:18.896Z,81.83
2017-09-22T01:45:47.209Z,81.75
2017-09-22T01:48:15.527Z,81.43
2017-09-22T01:50:43.867Z,81.34
2017-09-22T01:53:12.937Z,81.54
2017-09-22T01:55:41.262Z,82.24
2017-09-22T01:58:09.570Z,82.69
2017-09-22T02:00:37.885Z,83.10
2017-09-22T02:03:06.964Z,82.72
2017-09-22T02:05:35.286Z,82.60
2017-09-22T02:08:03.628Z,82.13
2017-09-22T02:10:31.985Z,82.42
2017-09-22T02:13:00.389Z,82.87
2017-09-22T02:15:28.676Z,82.97
2017-09-22T02:17:57.758Z,82.72
2017-09-22T02:20:26.851Z,82.11
2017-09-22T02:22:55.274Z,82.17
2017-09-22T02:25:23.578Z,81.74
2017-09-22T02:27:51.888Z,81.49
2017-09-22T02:30:20.214Z,82.19
2017-09-22T02:32:48.529Z,81.83
2017-09-22T02:35:16.853Z,82.54
2017-09-22T02:37:45.173Z,82.96
2017-09-22T02:40:13.581Z,82.52
2017-09-22T02:42:42.665Z,82.29
2017-09-22T02:45:11.048Z,82.01
2017-09-22T02:47:39.374Z,81.60
2017-09-22T02:50:07.683Z,81.26
2017-09-22T02:52:36.042Z,81.32
2017-09-22T02:55:04.328Z,81.46
2017-09-22T02:57:32.649Z,82.05
2017-09-22T03:00:01.718Z,82.66
2017-09-22T03:02:30.036Z,83.40
2017-09-22T03:04:58.350Z,83.20
2017-09-22T03:07:26.674Z,83.28
2017-09-22T03:09:55.745Z,83.28
2017-09-22T03:12:24.049Z,83.72
2017-09-22T03:14:53.125Z,83.86
2017-09-22T03:17:21.440Z,84.05
2017-09-22T03:19:49.758Z,83.76
2017-09-22T03:22:18.106Z,83.82
2017-09-22T03:24:46.417Z,83.94
2017-09-22T03:27:14.730Z,83.58
2017-09-22T03:29:43.810Z,83.30
2017-09-22T03:32:12.120Z,82.69
2017-09-22T03:34:40.513Z,82.20
2017-09-22T03:37:08.821Z,83.06
2017-09-22T03:39:37.154Z,82.87
2017-09-22T03:42:05.471Z,82.63
2017-09-22T03:44:33.782Z,82.43
2017-09-22T03:47:03.570Z,82.33
2017-09-22T03:49:31.878Z,81.86
2017-09-22T03:52:00.967Z,83.02
2017-09-22T03:54:30.047Z,82.86
2017-09-22T03:56:58.390Z,83.00
2017-09-22T03:59:26.721Z,82.12
2017-09-22T04:01:55.798Z,81.76
2017-09-22T04:04:24.130Z,81.68
2017-09-22T04:06:52.443Z,82.05
2017-09-22T04:09:20.769Z,81.99
2017-09-22T04:11:49.085Z,81.56
2017-09-22T04:14:17.419Z,81.30
2017-09-22T04:16:45.733Z,81.28
2017-09-22T04:19:14.075Z,81.65
2017-09-22T04:21:42.391Z,81.46
2017-09-22T04:24:10.707Z,81.34
2017-09-22T04:26:39.039Z,81.88
2017-09-22T04:29:07.403Z,81.71
2017-09-22T04:31:35.727Z,81.60
2017-09-22T04:34:04.055Z,81.05
2017-09-22T04:36:32.377Z,80.89
2017-09-22T04:39:00.685Z,81.34
2017-09-22T04:41:29.791Z,81.46
2017-09-22T04:43:58.098Z,80.89
2017-09-22T04:46:26.432Z,80.79
2017-09-22T04:48:55.513Z,80.94
2017-09-22T04:51:23.822Z,80.89
2017-09-22T04:53:52.142Z,80.59
2017-09-22T04:56:20.461Z,81.12
2017-09-22T04:58:49.563Z,80.98
2017-09-22T05:01:18.650Z,80.74
2017-09-22T05:03:47.750Z,80.37
2017-09-22T05:06:16.822Z,80.42
2017-09-22T05:08:45.171Z,80.34
2017-09-22T05:11:13.482Z,80.03
2017-09-22T05:13:41.789Z,79.65
2017-09-22T05:16:10.105Z,80.07
2017-09-22T05:18:38.413Z,79.45
2017-09-22T05:21:06.734Z,80.51
2017-09-22T05:23:35.046Z,80.51
2017-09-22T05:26:03.358Z,80.32
2017-09-22T05:28:32.434Z,79.59
2017-09-22T05:31:00.775Z,79.50
2017-09-22T05:33:29.084Z,79.38
2017-09-22T05:35:57.395Z,79.21
2017-09-22T05:38:26.483Z,79.94
2017-09-22T05:40:55.557Z,79.87
2017-09-22T05:43:23.870Z,79.03
2017-09-22T05:45:52.182Z,78.54
2017-09-22T05:48:20.504Z,77.87
2017-09-22T05:50:49.595Z,77.09
2017-09-22T05:53:18.707Z,77.30
2017-09-22T05:55:47.018Z,76.60
2017-09-22T05:58:15.330Z,77.29
2017-09-22T06:00:43.659Z,77.29
2017-09-22T06:03:11.972Z,76.60
2017-09-22T06:05:40.302Z,76.40
2017-09-22T06:08:08.602Z,75.86
2017-09-22T06:10:36.926Z,75.74
2017-09-22T06:13:06.006Z,75.28
2017-09-22T06:15:34.323Z,74.69
2017-09-22T06:18:02.634Z,74.56
2017-09-22T06:20:30.972Z,74.44
2017-09-22T06:23:00.043Z,74.18
2017-09-22T06:25:28.350Z,72.90
2017-09-22T06:27:57.426Z,73.11
2017-09-22T06:30:26.406Z,73.53
2017-09-22T06:32:54.717Z,72.83
2017-09-22T06:35:23.018Z,72.24
2017-09-22T06:37:51.333Z,73.32
2017-09-22T06:40:19.642Z,73.30
2017-09-22T06:42:48.739Z,72.93
2017-09-22T06:45:17.814Z,72.67
2017-09-22T06:47:46.117Z,72.16
2017-09-22T06:50:14.429Z,72.30
2017-09-22T06:52:42.734Z,71.34
2017-09-22T06:55:11.054Z,70.46
2017-09-22T06:57:39.370Z,70.19
2017-09-22T07:00:07.690Z,69.68
2017-09-22T07:02:36.758Z,69.32
2017-09-22T07:05:05.078Z,69.99
2017-09-22T07:07:33.386Z,69.08
2017-09-22T07:10:01.713Z,69.21
2017-09-22T07:12:31.050Z,68.81
2017-09-22T07:14:59.386Z,68.89
2017-09-22T07:17:27.691Z,69.23
2017-09-22T07:19:56.013Z,68.24
2017-09-22T07:22:24.417Z,66.74
2017-09-22T07:24:52.778Z,65.78
2017-09-22T07:27:21.153Z,65.45
2017-09-22T07:29:49.457Z,65.08
2017-09-22T07:32:18.626Z,65.22
2017-09-22T07:34:46.931Z,64.31
2017-09-22T07:37:16.013Z,62.34
2017-09-22T07:39:45.914Z,62.65
2017-09-22T07:42:14.230Z,63.86
2017-09-22T07:44:43.390Z,61.84
2017-09-22T07:47:11.719Z,62.76
2017-09-22T07:49:40.034Z,62.58
2017-09-22T07:52:08.369Z,62.26
2017-09-22T07:54:36.689Z,61.96
2017-09-22T07:57:05.005Z,61.48
2017-09-22T07:59:34.086Z,61.97
2017-09-22T08:02:02.394Z,60.82
2017-09-22T08:04:30.733Z,60.17
2017-09-22T08:06:59.167Z,60.76
2017-09-22T08:09:27.481Z,60.92
2017-09-22T08:11:55.794Z,61.74
2017-09-22T08:14:24.901Z,61.21
2017-09-22T08:16:53.228Z,61.21
2017-09-22T08:19:21.543Z,62.14
2017-09-22T08:21:50.657Z,62.53
2017-09-22T08:24:18.970Z,62.48
2017-09-22T08:26:47.294Z,61.48
2017-09-22T08:29:16.370Z,61.11
2017-09-22T08:31:44.685Z,60.23
2017-09-22T08:34:13.000Z,59.37
2017-09-22T08:36:41.314Z,59.98
2017-09-22T08:39:09.617Z,58.65
2017-09-22T08:41:37.940Z,58.84
2017-09-22T08:44:06.254Z,59.66
2017-09-22T08:46:35.458Z,59.70
2017-09-22T08:49:04.617Z,59.41
2017-09-22T08:51:33.694Z,59.81
2017-09-22T08:54:02.084Z,59.97
2017-09-22T08:56:31.275Z,59.51
2017-09-22T08:58:59.593Z,59.82
2017-09-22T09:01:27.898Z,60.15
2017-09-22T09:03:56.259Z,59.26
2017-09-22T09:06:24.582Z,59.36
2017-09-22T09:08:52.935Z,59.22
2017-09-22T09:11:22.021Z,58.46
2017-09-22T09:13:50.344Z,56.55
2017-09-22T09:16:18.664Z,54.02
2017-09-22T09:18:46.982Z,51.21
2017-09-22T09:21:15.302Z,49.28
2017-09-22T09:23:43.609Z,48.33
2017-09-22T09:26:11.940Z,45.96
2017-09-22T09:28:41.021Z,47.72
2017-09-22T09:31:09.337Z,50.48
2017-09-22T09:33:37.644Z,47.20
2017-09-22T09:36:05.976Z,40.90
2017-09-22T09:38:35.054Z,38.17
2017-09-22T09:41:04.149Z,40.05
2017-09-22T09:43:32.457Z,41.71
2017-09-22T09:46:00.801Z,42.04
2017-09-22T09:48:29.110Z,41.82
2017-09-22T09:50:57.413Z,43.45
2017-09-22T09:53:25.767Z,44.62
2017-09-22T09:55:54.092Z,46.93
2017-09-22T09:58:22.417Z,48.47
2017-09-22T10:00:50.723Z,48.70
2017-09-22T10:03:19.041Z,49.21
2017-09-22T10:05:47.357Z,49.86
2017-09-22T10:08:15.782Z,50.07
2017-09-22T10:10:44.094Z,49.68
2017-09-22T10:13:13.188Z,48.98
2017-09-22T10:15:42.269Z,49.08
2017-09-22T10:18:10.608Z,49.74
2017-09-22T10:20:38.948Z,49.64
2017-09-22T10:23:07.254Z,48.45
2017-09-22T10:25:35.586Z,48.83
2017-09-22T10:28:04.663Z,46.10
2017-09-22T10:30:32.977Z,46.73
2017-09-22T10:33:01.291Z,43.86
2017-09-22T10:35:29.626Z,44.31
2017-09-22T10:37:58.722Z,46.28
2017-09-22T10:40:27.824Z,45.65
2017-09-22T10:42:56.136Z,43.53
2017-09-22T10:45:24.471Z,43.91
2017-09-22T10:47:53.552Z,44.69
2017-09-22T10:50:22.659Z,43.78
2017-09-22T10:52:51.742Z,44.64
2017-09-22T10:55:20.832Z,42.67
2017-09-22T10:57:49.164Z,45.29
2017-09-22T11:00:17.478Z,42.56
2017-09-22T11:02:45.822Z,41.33
2017-09-22T11:05:14.134Z,42.57
2017-09-22T11:07:42.466Z,41.06
2017-09-22T11:10:10.781Z,44.29
2017-09-22T11:12:39.103Z,44.57
2017-09-22T11:15:07.421Z,45.62
2017-09-22T11:17:35.737Z,46.81
2017-09-22T11:20:04.822Z,46.64
2017-09-22T11:22:33.282Z,46.72
2017-09-22T11:25:01.595Z,47.03
2017-09-22T11:27:30.724Z,47.24
2017-09-22T11:29:59.042Z,47.93
2017-09-22T11:32:27.353Z,48.29
2017-09-22T11:34:56.441Z,47.76
2017-09-22T11:37:25.510Z,47.92
2017-09-22T11:39:53.838Z,46.91
2017-09-22T11:42:22.152Z,47.13
2017-09-22T11:44:50.469Z,48.22
2017-09-22T11:47:19.547Z,48.55
2017-09-22T11:49:47.866Z,49.23
2017-09-22T11:52:16.169Z,49.76
2017-09-22T11:54:44.485Z,50.39
2017-09-22T11:57:12.787Z,49.62
2017-09-22T11:59:41.132Z,50.55
2017-09-22T12:02:09.441Z,48.92
2017-09-22T12:04:37.753Z,49.03
2017-09-22T12:07:06.072Z,48.65
2017-09-22T12:09:34.380Z,49.22
2017-09-22T12:12:02.702Z,48.97
2017-09-22T12:14:31.014Z,49.34
2017-09-22T12:17:00.101Z,49.02
2017-09-22T12:19:28.414Z,48.69
2017-09-22T12:21:56.731Z,47.87
2017-09-22T12:24:25.041Z,47.11
2017-09-22T12:26:54.122Z,47.43
2017-09-22T12:29:22.990Z,47.15
2017-09-22T12:31:51.302Z,45.39
2017-09-22T12:34:20.386Z,46.04
2017-09-22T12:36:48.742Z,44.42
2017-09-22T12:39:17.054Z,43.93
2017-09-22T12:41:46.125Z,44.17
2017-09-22T12:44:14.445Z,44.00
2017-09-22T12:46:42.766Z,42.74
2017-09-22T12:49:11.086Z,41.77
2017-09-22T12:51:40.171Z,43.48
2017-09-22T12:54:09.257Z,43.10
2017-09-22T12:56:37.566Z,42.72
2017-09-22T12:59:05.907Z,44.50
2017-09-22T13:01:34.214Z,43.88
2017-09-22T13:04:03.294Z,43.40
2017-09-22T13:06:32.377Z,44.23
2017-09-22T13:09:00.682Z,45.18
2017-09-22T13:11:29.788Z,44.15
2017-09-22T13:13:58.102Z,44.57
2017-09-22T13:16:26.421Z,44.32
2017-09-22T13:18:55.505Z,44.31
2017-09-22T13:21:23.822Z,43.17
2017-09-22T13:23:52.132Z,41.69
2017-09-22T13:26:20.446Z,41.71
2017-09-22T13:28:49.534Z,41.77
2017-09-22T13:31:18.611Z,44.22
2017-09-22T13:33:46.924Z,44.77
2017-09-22T13:36:15.998Z,44.65
2017-09-22T13:38:44.314Z,46.07
2017-09-22T13:41:12.633Z,44.30
2017-09-22T13:43:40.945Z,44.33
2017-09-22T13:46:10.017Z,44.27
2017-09-22T13:48:38.614Z,44.72
2017-09-22T13:51:07.699Z,43.79
2017-09-22T13:53:36.006Z,44.57
2017-09-22T13:56:04.324Z,43.74
2017-09-22T13:58:32.634Z,44.47
2017-09-22T14:01:00.958Z,45.00
2017-09-22T14:03:29.267Z,46.31
2017-09-22T14:05:57.592Z,46.60
2017-09-22T14:08:25.922Z,47.05
2017-09-22T14:10:54.264Z,45.19
2017-09-22T14:13:22.569Z,46.88
2017-09-22T14:15:50.878Z,48.64
2017-09-22T14:18:20.790Z,48.60
2017-09-22T14:20:49.106Z,48.82
2017-09-22T14:23:17.424Z,48.56
2017-09-22T14:25:45.733Z,49.26
2017-09-22T14:28:14.814Z,49.23
2017-09-22T14:30:43.118Z,49.43
2017-09-22T14:33:11.445Z,50.89
2017-09-22T14:35:39.750Z,51.84
2017-09-22T14:38:08.087Z,52.17
2017-09-22T14:40:36.393Z,51.39
2017-09-22T14:43:04.695Z,52.01
2017-09-22T14:45:33.807Z,51.24
2017-09-22T14:48:02.861Z,51.28
2017-09-22T14:50:31.178Z,51.35
2017-09-22T14:52:59.501Z,51.80
2017-09-22T14:55:27.818Z,51.25
2017-09-22T14:57:56.897Z,51.23
2017-09-22T15:00:25.237Z,50.80
2017-09-22T15:02:53.549Z,50.10
2017-09-22T15:05:21.863Z,49.72
2017-09-22T15:07:50.183Z,49.06
2017-09-22T15:10:18.532Z,48.67
2017-09-22T15:12:46.850Z,48.63
2017-09-22T15:15:15.166Z,48.66
2017-09-22T15:17:43.484Z,48.34
2017-09-22T15:20:11.797Z,48.41
2017-09-22T15:22:40.126Z,48.62
2017-09-22T15:25:08.441Z,48.74
2017-09-22T15:27:36.782Z,48.91
2017-09-22T15:30:05.109Z,50.11
2017-09-22T15:32:33.413Z,50.78
2017-09-22T15:35:01.742Z,50.71
2017-09-22T15:37:30.054Z,50.53
2017-09-22T15:39:58.389Z,50.31
2017-09-22T15:42:26.713Z,50.13
2017-09-22T15:44:55.044Z,51.14
2017-09-22T15:47:28.791Z,50.56
2017-09-22T15:49:57.911Z,50.82
2017-09-22T15:52:26.217Z,50.66
2017-09-22T15:54:54.522Z,50.85
2017-09-22T15:57:22.851Z,51.17
2017-09-22T15:59:51.174Z,51.95
2017-09-22T16:02:19.487Z,52.29
2017-09-22T16:04:47.883Z,54.07
2017-09-22T16:07:16.209Z,53.58
2017-09-22T16:09:44.518Z,53.59
2017-09-22T16:12:12.865Z,54.35
2017-09-22T16:14:41.174Z,54.86
2017-09-22T16:17:09.482Z,55.47
2017-09-22T16:19:37.802Z,56.57
2017-09-22T16:22:06.117Z,56.75
2017-09-22T16:24:34.440Z,57.56
2017-09-22T16:27:03.358Z,57.83
2017-09-22T16:29:32.451Z,59.80
2017-09-22T16:32:01.526Z,60.01
2017-09-22T16:34:29.843Z,61.69
2017-09-22T16:36:58.147Z,62.35
2017-09-22T16:39:26.487Z,63.38
2017-09-22T16:41:55.555Z,62.47
2017-09-22T16:44:23.862Z,64.00
2017-09-22T16:46:52.947Z,65.14
2017-09-22T16:49:22.029Z,65.53
2017-09-22T16:51:50.357Z,66.06
2017-09-22T16:54:18.673Z,65.94
2017-09-22T16:56:47.011Z,65.63
2017-09-22T16:59:15.309Z,67.40
2017-09-22T17:01:43.637Z,64.85
2017-09-22T17:04:12.710Z,64.10
2017-09-22T17:06:41.010Z,62.83
2017-09-22T17:09:10.090Z,62.39
2017-09-22T17:11:39.181Z,61.82
2017-09-22T17:14:07.509Z,62.12
2017-09-22T17:16:35.824Z,61.85
2017-09-22T17:19:04.164Z,61.99
2017-09-22T17:21:32.478Z,62.42
2017-09-22T17:24:00.806Z,62.23
2017-09-22T17:26:29.117Z,62.26
2017-09-22T17:28:57.472Z,62.89
2017-09-22T17:31:25.782Z,63.06
2017-09-22T17:33:54.094Z,63.16
2017-09-22T17:36:23.178Z,63.37
2017-09-22T17:38:52.262Z,63.20
2017-09-22T17:41:20.577Z,63.29
2017-09-22T17:43:48.889Z,63.51
2017-09-22T17:46:17.206Z,63.76
2017-09-22T17:48:46.281Z,63.83
2017-09-22T17:51:14.609Z,64.21
2017-09-22T17:53:42.914Z,64.08
2017-09-22T17:56:11.262Z,64.17
2017-09-22T17:58:39.574Z,64.21
2017-09-22T18:01:07.882Z,64.80
2017-09-22T18:03:36.210Z,64.96
2017-09-22T18:06:04.521Z,65.24
2017-09-22T18:08:32.857Z,65.38
2017-09-22T18:11:01.191Z,65.44
2017-09-22T18:13:29.515Z,65.80
2017-09-22T18:15:57.835Z,65.66
2017-09-22T18:18:26.165Z,65.88
2017-09-22T18:20:54.469Z,66.09
2017-09-22T18:23:22.790Z,66.37
2017-09-22T18:25:51.863Z,66.75
2017-09-22T18:28:20.210Z,66.38
2017-09-22T18:30:48.517Z,66.10
2017-09-22T18:33:16.834Z,66.11
2017-09-22T18:35:45.940Z,66.58
2017-09-22T18:38:14.257Z,66.77
2017-09-22T18:40:42.587Z,67.20
2017-09-22T18:43:10.918Z,67.33
2017-09-22T18:45:39.263Z,67.45
2017-09-22T18:48:07.570Z,67.66
2017-09-22T18:50:35.906Z,67.95
2017-09-22T18:53:04.226Z,68.22
2017-09-22T18:55:32.545Z,68.84
2017-09-22T18:58:01.637Z,69.17
2017-09-22T19:00:30.737Z,69.63
2017-09-22T19:02:59.070Z,69.85
2017-09-22T19:05:27.378Z,70.42
2017-09-22T19:07:56.474Z,70.84
2017-09-22T19:10:25.600Z,71.29
2017-09-22T19:12:53.910Z,71.25
2017-09-22T19:15:22.238Z,71.35
2017-09-22T19:17:51.354Z,72.06
2017-09-22T19:20:19.699Z,72.18
2017-09-22T19:22:48.786Z,72.72
2017-09-22T19:25:17.098Z,72.75
2017-09-22T19:27:45.440Z,72.71
2017-09-22T19:30:13.745Z,72.83
2017-09-22T19:32:42.057Z,73.08
2017-09-22T19:35:10.382Z,73.38
2017-09-22T19:37:39.512Z,73.76
2017-09-22T19:40:07.829Z,74.01
2017-09-22T19:42:36.154Z,74.52
2017-09-22T19:45:04.512Z,74.90
2017-09-22T19:47:33.640Z,74.50
2017-09-22T19:50:01.949Z,75.29
2017-09-22T19:52:30.261Z,75.19
2017-09-22T19:54:59.354Z,76.30
2017-09-22T19:57:28.429Z,77.57
2017-09-22T19:59:56.791Z,78.01
2017-09-22T20:02:25.121Z,78.61
2017-09-22T20:04:54.235Z,78.96
2017-09-22T20:07:22.574Z,79.23
2017-09-22T20:09:50.886Z,79.21
2017-09-22T20:12:19.202Z,79.59
2017-09-22T20:14:47.527Z,80.12
2017-09-22T20:17:16.616Z,80.49
2017-09-22T20:19:45.682Z,80.61
2017-09-22T20:22:14.022Z,81.19
2017-09-22T20:24:42.342Z,81.63
2017-09-22T20:27:10.666Z,81.86
2017-09-22T20:29:38.984Z,82.25
2017-09-22T20:32:07.329Z,82.29
2017-09-22T20:34:35.634Z,82.24
2017-09-22T20:37:03.955Z,82.30
2017-09-22T20:39:33.037Z,82.03
2017-09-22T20:42:01.410Z,82.79
2017-09-22T20:44:29.774Z,83.13
2017-09-22T20:46:58.083Z,82.96
2017-09-22T20:49:27.165Z,83.36
2017-09-22T20:51:55.483Z,83.12
2017-09-22T20:54:23.799Z,83.41
2017-09-22T20:56:52.108Z,83.25
2017-09-22T20:59:20.425Z,83.15
2017-09-22T21:01:48.766Z,82.99
2017-09-22T21:04:17.089Z,82.95
2017-09-22T21:06:45.405Z,83.02
2017-09-22T21:09:14.485Z,83.32
2017-09-22T21:11:43.573Z,83.47
2017-09-22T21:14:11.883Z,83.72
2017-09-22T21:16:40.206Z,83.36
2017-09-22T21:19:08.525Z,83.21
2017-09-22T21:21:37.610Z,83.01
2017-09-22T21:24:06.685Z,82.65
2017-09-22T21:26:35.014Z,81.93
2017-09-22T21:29:03.330Z,82.51
2017-09-22T21:31:31.658Z,82.09
2017-09-22T21:33:59.974Z,82.34
2017-09-22T21:36:28.322Z,82.64
2017-09-22T21:38:56.628Z,82.66
2017-09-22T21:41:24.937Z,82.50
2017-09-22T21:43:53.270Z,82.00
2017-09-22T21:46:21.586Z,81.82
2017-09-22T21:48:49.921Z,81.50
2017-09-22T21:51:18.234Z,81.32
2017-09-22T21:53:46.558Z,81.03
2017-09-22T21:56:14.860Z,81.03
2017-09-22T21:58:43.207Z,80.67
2017-09-22T22:01:11.523Z,80.38
2017-09-22T22:03:45.454Z,80.40
2017-09-22T22:06:19.265Z,80.43
2017-09-22T22:09:07.870Z,81.22
2017-09-22T22:11:36.190Z,81.06
2017-09-22T22:14:04.534Z,81.28
2017-09-22T22:16:32.839Z,81.10
2017-09-22T22:19:01.159Z,81.09
2017-09-22T22:21:29.482Z,81.36
2017-09-22T22:23:57.793Z,81.15
2017-09-22T22:26:26.878Z,81.53
2017-09-22T22:28:55.186Z,82.60
2017-09-22T22:31:23.530Z,82.56
2017-09-22T22:33:51.847Z,83.03
2017-09-22T22:36:26.825Z,83.02
2017-09-22T22:38:55.142Z,82.27
2017-09-22T22:41:24.230Z,81.74
2017-09-22T22:43:52.557Z,81.24
2017-09-22T22:46:20.883Z,80.82
2017-09-22T22:48:49.977Z,80.51
2017-09-22T22:51:19.057Z,80.80
2017-09-22T22:53:47.383Z,80.87
2017-09-22T22:56:15.692Z,80.93
2017-09-22T22:58:44.010Z,80.35
2017-09-22T23:01:13.086Z,80.50
2017-09-22T23:03:41.410Z,80.79
2017-09-22T23:06:09.722Z,80.88
2017-09-22T23:08:38.071Z,81.27
2017-09-22T23:11:06.389Z,82.50
2017-09-22T23:13:35.122Z,83.49
2017-09-22T23:16:03.442Z,84.10
2017-09-22T23:18:31.762Z,84.11
2017-09-22T23:21:00.864Z,84.94
2017-09-22T23:23:29.177Z,85.53
2017-09-22T23:25:57.515Z,85.40
2017-09-22T23:28:26.599Z,86.11
2017-09-22T23:30:55.695Z,85.76
2017-09-22T23:33:24.814Z,85.86
2017-09-22T23:35:53.118Z,85.51
2017-09-22T23:38:21.446Z,84.73
2017-09-22T23:40:49.755Z,85.20
2017-09-22T23:43:18.078Z,84.94
2017-09-22T23:45:46.386Z,84.92
2017-09-22T23:48:15.478Z,85.06
2017-09-22T23:50:44.554Z,85.52
2017-09-22T23:53:12.879Z,85.18
2017-09-22T23:55:41.194Z,85.57
2017-09-22T23:58:09.538Z,85.41
